Uppdatera informationen genom att klicka på tidkoden mellan uppdateringssymbolerna i översta svarta fältet.
Tidkoden visar när senaste uppdateringen av sidan gjordes.
FJAR - METAR (ingen TAF tillgänglig)
FJAR 291820Z AUTO 00000KT -7/-8 Q1016=
FJAR 291850Z AUTO 00000KT -7/-8 Q1016=
FJAR 291920Z AUTO 00000KT -8/-8 Q1016=
FJAR 291950Z AUTO 00000KT -8/-9 Q1016=
FORL - METAR (ingen TAF tillgänglig)
FORL 291820Z AUTO 29002KT -5/-6 Q1020=
FORL 291850Z AUTO 00000KT -6/-7 Q1020=
FORL 291920Z AUTO 00000KT -7/-7 Q1020=
FORL 291950Z AUTO 13001KT -6/-7 Q1020=
ESGP - METAR (ingen TAF tillgänglig)
ESGP 291820Z AUTO 00000KT 9999 NCD M08/M10 Q1005=
ESGP 291850Z AUTO 00000KT 9000 BR NCD M08/M10 Q1005=
ESGP 291920Z AUTO 00000KT 1900 BR NCD M08/M10 Q1004=
ESGP 291950Z AUTO 11003KT 9999 NCD M09/M11 Q1004=
ESGG - METAR & TAF
ESGG 291820Z 07003KT CAVOK M07/M08 Q1004=
ESGG 291850Z 09004KT CAVOK M08/M09 Q1004=
ESGG 291920Z 10004KT CAVOK M09/M10 Q1003=
ESGG 291950Z 12003KT CAVOK M08/M09 Q1003=
TAF ESGG 291730Z 2918/3018 VRB03KT CAVOK PROB40 2918/3002 BKN004 TEMPO 3002/3012 2000 SN VV008 BECMG 3005/3007 15013G25KT BECMG 3010/3012 08010KT BECMG 3015/3017 VRB02KT=
ESMT - METAR & TAF
ESMT 291820Z 19002KT CAVOK M04/M06 Q1004=
ESMT 291850Z 00000KT CAVOK M05/M06 Q1004=
ESMT 291920Z VRB01KT CAVOK M05/M06 Q1004=
ESMT 291950Z 07003KT CAVOK M05/M06 Q1004=
TAF ESMT 291714Z 2918/2920 33005KT CAVOK=
Aktuell SWC
Aktuell VFR-analys
VFR-prognos för morgondagen 06 UTC
Endast mellan 16 och 24
VFR-prognos för morgondagen 12 UTC
Endast mellan 16 och 24
Datakällor
Standard METAR & TAF
- Meteorologisk institutt, Norge
Icke standard METAR & TAF
- Säve: wx.awos.se
- Fjärås: metar.se
- Förlanda: metar.se
Grafik SWC & VFR-analys/prognos
- Luftfartsverket
Kontakt
Daniel Bengtsson - met@tulebo.se